Time;durP1;ratioP1;P1;durP2;ratioP2;P2;SDS_P1;SDS_P2;PMS_P1;PMS_P2;Temp;Humidity;BMP_temperature;BMP_pressure;BME280_temperature;BME280_humidity;BME280_pressure;Samples;Min_cycle;Max_cycle;Signal;HPM_P1;HPM_P2
2022/03/05 00:00:24;;;;;;;74.32;49.13;;;2.60;99.90;;;;;;4955096;29;20039;-69
2022/03/05 00:02:50;;;;;;;78.93;49.75;;;2.60;99.90;;;;;;4955510;28;20189;-71
2022/03/05 00:05:16;;;;;;;79.55;53.25;;;2.50;99.90;;;;;;4955320;29;20390;-68
2022/03/05 00:07:42;;;;;;;83.15;52.88;;;2.50;99.90;;;;;;4955300;28;20200;-68
2022/03/05 00:10:09;;;;;;;85.80;53.92;;;2.50;99.90;;;;;;4955276;29;20042;-69
2022/03/05 00:12:35;;;;;;;81.47;52.40;;;2.50;99.90;;;;;;4955162;28;20097;-70
2022/03/05 00:15:01;;;;;;;86.03;57.28;;;2.40;99.90;;;;;;4954968;28;20056;-68
2022/03/05 00:17:27;;;;;;;87.30;53.58;;;2.30;99.90;;;;;;4954839;29;20118;-69
2022/03/05 00:19:54;;;;;;;83.55;54.63;;;2.30;99.90;;;;;;4955166;29;20488;-70
2022/03/05 00:22:21;;;;;;;93.03;59.30;;;2.20;99.90;;;;;;4971033;28;20181;-68
2022/03/05 00:24:47;;;;;;;87.65;58.90;;;2.30;99.90;;;;;;4975319;28;20026;-68
2022/03/05 00:27:14;;;;;;;93.28;60.97;;;2.30;99.90;;;;;;4976409;28;20030;-70
2022/03/05 00:29:40;;;;;;;87.63;58.35;;;2.30;99.90;;;;;;4974713;28;20030;-70
2022/03/05 00:32:06;;;;;;;89.20;57.75;;;2.20;99.90;;;;;;4976070;28;20050;-68
2022/03/05 00:34:33;;;;;;;100.22;60.92;;;2.10;99.90;;;;;;4976369;28;20054;-68
2022/03/05 00:36:59;;;;;;;99.10;64.15;;;2.10;99.90;;;;;;4975813;28;20085;-68
2022/03/05 00:39:25;;;;;;;106.40;70.47;;;2.10;99.90;;;;;;4974795;28;20019;-68
2022/03/05 00:41:51;;;;;;;107.80;69.65;;;2.10;99.90;;;;;;4976410;28;20432;-68
2022/03/05 00:44:17;;;;;;;96.07;65.70;;;2.20;99.90;;;;;;4975823;28;20488;-69
2022/03/05 00:46:43;;;;;;;102.40;68.55;;;2.20;99.90;;;;;;4975109;28;20185;-68
2022/03/05 00:49:08;;;;;;;99.72;65.38;;;2.20;99.90;;;;;;4975045;28;20542;-70
2022/03/05 00:51:34;;;;;;;88.65;61.60;;;2.20;99.90;;;;;;4974782;28;20047;-68
2022/03/05 00:54:00;;;;;;;97.78;64.20;;;2.20;99.90;;;;;;4974866;28;20023;-71
2022/03/05 00:56:26;;;;;;;97.10;62.55;;;2.20;99.90;;;;;;4974766;28;20407;-67
2022/03/05 00:58:52;;;;;;;98.20;64.95;;;2.20;99.90;;;;;;4974423;28;20023;-68
2022/03/05 01:01:19;;;;;;;95.18;66.57;;;2.20;99.90;;;;;;4973950;28;20041;-68
2022/03/05 01:03:45;;;;;;;93.45;62.40;;;2.10;99.90;;;;;;4974520;28;20366;-68
2022/03/05 01:06:11;;;;;;;96.68;63.45;;;2.00;99.90;;;;;;4974672;28;20037;-68
2022/03/05 01:08:37;;;;;;;89.00;61.00;;;2.00;99.90;;;;;;4974607;28;20381;-68
2022/03/05 01:11:03;;;;;;;91.70;60.83;;;2.00;99.90;;;;;;4973272;28;20101;-67
2022/03/05 01:13:29;;;;;;;93.97;63.08;;;2.00;99.90;;;;;;4974606;28;20027;-65
2022/03/05 01:16:00;;;;;;;90.72;61.08;;;1.90;99.90;;;;;;4974078;28;20030;-68
2022/03/05 01:18:26;;;;;;;86.57;59.83;;;1.90;99.90;;;;;;4956925;28;20035;-68
2022/03/05 01:20:52;;;;;;;75.80;53.30;;;1.90;99.90;;;;;;4974489;28;20469;-68
2022/03/05 01:23:18;;;;;;;84.10;56.72;;;1.80;99.90;;;;;;4974172;28;20019;-69
2022/03/05 01:25:45;;;;;;;92.75;59.13;;;1.80;99.90;;;;;;4974157;28;20034;-69
2022/03/05 01:28:11;;;;;;;96.15;61.92;;;1.80;99.90;;;;;;4972941;28;20026;-69
2022/03/05 01:30:38;;;;;;;84.10;57.90;;;1.80;99.90;;;;;;4974105;28;20061;-69
2022/03/05 01:33:04;;;;;;;90.03;59.40;;;1.70;99.90;;;;;;4974118;28;20053;-68
2022/03/05 01:35:30;;;;;;;94.28;63.42;;;1.70;99.90;;;;;;4974219;28;20481;-68
2022/03/05 01:37:56;;;;;;;105.30;68.53;;;1.70;99.90;;;;;;4973833;28;20114;-69
2022/03/05 01:40:23;;;;;;;117.10;78.78;;;1.70;99.90;;;;;;4972574;28;20045;-69
2022/03/05 01:42:49;;;;;;;114.45;76.28;;;1.70;99.90;;;;;;4972885;28;20029;-69
2022/03/05 01:45:15;;;;;;;112.93;73.30;;;1.60;99.90;;;;;;4904082;28;2047473;-69
2022/03/05 01:47:42;;;;;;;112.50;71.50;;;1.60;99.90;;;;;;4974849;28;20035;-69
2022/03/05 01:50:09;;;;;;;105.72;70.65;;;1.60;99.90;;;;;;4975288;28;20374;-69
2022/03/05 01:52:35;;;;;;;111.13;70.65;;;1.60;99.90;;;;;;4974819;28;20157;-68
2022/03/05 01:55:02;;;;;;;104.53;73.25;;;1.60;99.90;;;;;;4974778;28;20019;-69
2022/03/05 01:57:28;;;;;;;113.90;74.32;;;1.50;99.90;;;;;;4974181;28;20058;-68
2022/03/05 01:59:55;;;;;;;129.90;84.15;;;1.50;99.90;;;;;;4973718;28;20034;-69
2022/03/05 02:02:21;;;;;;;132.20;88.45;;;1.40;99.90;;;;;;4973685;28;20030;-68
2022/03/05 02:04:47;;;;;;;119.38;78.68;;;1.40;99.90;;;;;;4970149;28;20371;-67
2022/03/05 02:07:14;;;;;;;123.40;81.00;;;1.40;99.90;;;;;;4967619;28;20027;-68
2022/03/05 02:09:40;;;;;;;128.65;80.70;;;1.30;99.90;;;;;;4960772;28;20149;-68
2022/03/05 02:12:07;;;;;;;167.60;98.50;;;1.40;99.90;;;;;;4956673;28;20563;-68
2022/03/05 02:14:34;;;;;;;181.65;106.68;;;1.40;99.90;;;;;;4974155;28;20039;-69
2022/03/05 02:17:00;;;;;;;157.30;97.65;;;1.40;99.90;;;;;;4972947;28;20468;-69
2022/03/05 02:19:44;;;;;;;141.82;86.93;;;1.40;99.90;;;;;;4973404;28;20106;-69
2022/03/05 02:22:13;;;;;;;126.57;79.45;;;1.50;99.90;;;;;;4972065;28;20520;-68
2022/03/05 02:24:45;;;;;;;139.07;83.90;;;1.50;99.90;;;;;;4973482;28;20027;-68
2022/03/05 02:27:24;;;;;;;135.20;84.05;;;1.40;99.90;;;;;;4971767;28;20026;-68
2022/03/05 02:29:55;;;;;;;130.57;81.25;;;1.40;99.90;;;;;;4972398;28;20030;-68
2022/03/05 02:32:22;;;;;;;124.55;74.30;;;1.40;99.90;;;;;;4973554;28;20046;-68
2022/03/05 02:34:48;;;;;;;67.97;43.92;;;1.40;99.90;;;;;;4973219;28;20022;-68
2022/03/05 02:37:15;;;;;;;67.90;43.85;;;1.40;99.90;;;;;;4973449;28;20035;-68
2022/03/05 02:39:46;;;;;;;57.08;36.40;;;1.30;99.90;;;;;;4973794;28;20027;-69
2022/03/05 02:42:15;;;;;;;47.60;31.33;;;1.30;99.90;;;;;;4953304;29;20031;-68
2022/03/05 02:44:42;;;;;;;54.10;30.48;;;1.30;99.90;;;;;;4968373;28;20441;-69
2022/03/05 02:47:14;;;;;;;42.38;27.50;;;1.30;99.90;;;;;;4973580;28;20053;-69
2022/03/05 02:49:40;;;;;;;44.50;28.05;;;1.30;99.90;;;;;;4956963;28;20053;-68
2022/03/05 02:52:07;;;;;;;49.75;31.65;;;1.30;99.90;;;;;;4972111;28;20392;-68
2022/03/05 02:54:33;;;;;;;49.35;29.33;;;1.30;99.90;;;;;;4971977;28;20479;-69
2022/03/05 02:56:59;;;;;;;48.33;29.45;;;1.40;99.90;;;;;;4972367;28;20027;-67
2022/03/05 02:59:25;;;;;;;49.75;28.00;;;1.40;99.90;;;;;;4973453;28;20081;-68
2022/03/05 03:01:51;;;;;;;45.22;28.42;;;1.40;99.90;;;;;;4972214;28;20035;-67
2022/03/05 03:04:17;;;;;;;48.40;30.20;;;1.50;99.90;;;;;;4973071;28;20287;-69
2022/03/05 03:06:55;;;;;;;56.15;31.80;;;1.50;99.90;;;;;;4969037;28;20046;-68
2022/03/05 03:09:24;;;;;;;66.85;33.92;;;1.40;99.90;;;;;;4953301;28;20497;-67
2022/03/05 03:11:51;;;;;;;45.05;29.25;;;1.40;99.90;;;;;;4970612;28;20039;-68
2022/03/05 03:14:31;;;;;;;57.25;33.15;;;1.40;99.90;;;;;;4955723;28;20057;-70
2022/03/05 03:17:01;;;;;;;54.58;32.10;;;1.40;99.90;;;;;;4972729;28;20034;-69
2022/03/05 03:19:29;;;;;;;50.58;31.52;;;1.40;99.90;;;;;;4968584;28;20019;-69
2022/03/05 03:21:56;;;;;;;46.20;28.15;;;1.50;99.90;;;;;;4957837;28;20023;-68
2022/03/05 03:24:22;;;;;;;52.00;28.58;;;1.50;99.90;;;;;;4957106;28;20432;-69
2022/03/05 03:26:48;;;;;;;42.17;25.55;;;1.50;99.90;;;;;;4972064;28;20038;-69
2022/03/05 03:29:15;;;;;;;42.58;24.35;;;1.60;99.90;;;;;;4972704;28;20031;-69
2022/03/05 03:31:40;;;;;;;39.88;23.13;;;1.60;99.90;;;;;;4972796;28;20041;-69
2022/03/05 03:34:06;;;;;;;42.03;24.88;;;1.60;99.90;;;;;;4972602;28;20038;-69
2022/03/05 03:36:32;;;;;;;42.65;25.63;;;1.60;99.90;;;;;;4973126;28;20053;-68
2022/03/05 03:38:58;;;;;;;45.45;26.95;;;1.60;99.90;;;;;;4972991;28;20697;-68
2022/03/05 03:41:28;;;;;;;40.28;23.48;;;1.60;99.90;;;;;;4988004;28;20031;-68
2022/03/05 03:43:54;;;;;;;47.67;27.52;;;1.60;99.90;;;;;;4971989;28;20031;-69
2022/03/05 03:46:20;;;;;;;42.80;25.90;;;1.60;99.90;;;;;;4977933;28;20058;-68
2022/03/05 03:48:47;;;;;;;45.25;26.33;;;1.60;99.90;;;;;;4971637;28;20405;-69
2022/03/05 03:51:18;;;;;;;42.95;25.27;;;1.60;99.90;;;;;;4972475;28;20034;-68
2022/03/05 03:53:44;;;;;;;37.40;22.85;;;1.70;99.90;;;;;;4970990;28;20617;-68
2022/03/05 03:56:10;;;;;;;38.25;22.58;;;1.60;99.90;;;;;;4976596;28;20093;-68
2022/03/05 03:58:36;;;;;;;41.97;24.05;;;1.50;99.90;;;;;;4983381;28;20120;-69
2022/03/05 04:01:02;;;;;;;39.63;23.10;;;1.50;99.90;;;;;;4990525;28;20089;-66
2022/03/05 04:03:28;;;;;;;41.08;24.48;;;1.50;99.90;;;;;;4992099;28;20471;-66
2022/03/05 04:05:54;;;;;;;44.83;24.45;;;1.50;99.90;;;;;;4991997;28;20026;-68
2022/03/05 04:11:28;;;;;;;44.40;26.10;;;1.60;99.90;;;;;;4991803;28;20433;-69
2022/03/05 04:13:53;;;;;;;40.33;23.65;;;1.60;99.90;;;;;;4992029;28;20043;-67
2022/03/05 04:16:19;;;;;;;49.10;30.95;;;1.60;99.90;;;;;;4985969;28;20022;-68
2022/03/05 04:18:45;;;;;;;55.10;33.00;;;1.60;99.90;;;;;;4972713;28;20428;-68
2022/03/05 04:21:11;;;;;;;49.63;31.23;;;1.70;99.90;;;;;;4972972;28;20452;-67
2022/03/05 04:24:09;;;;;;;49.10;26.83;;;1.70;99.90;;;;;;4972310;28;20057;-68
2022/03/05 04:26:55;;;;;;;42.75;24.48;;;1.60;99.90;;;;;;4984636;28;20081;-67
2022/03/05 04:29:21;;;;;;;43.65;24.27;;;1.60;99.90;;;;;;4972474;28;20034;-69
2022/03/05 04:31:47;;;;;;;42.10;23.85;;;1.60;99.90;;;;;;4972173;28;20042;-68
2022/03/05 04:34:13;;;;;;;39.72;23.17;;;1.60;99.90;;;;;;4972556;28;20035;-69
2022/03/05 04:36:45;;;;;;;43.42;26.00;;;1.70;99.90;;;;;;4975751;28;20027;-67
2022/03/05 04:39:14;;;;;;;55.13;30.50;;;1.70;99.90;;;;;;4973943;28;20029;-69
2022/03/05 04:41:40;;;;;;;49.40;29.25;;;1.60;99.90;;;;;;4975185;28;20058;-69
2022/03/05 04:44:15;;;;;;;49.38;29.35;;;1.50;99.90;;;;;;4972498;28;20047;-69
2022/03/05 04:46:40;;;;;;;45.35;25.27;;;1.40;99.90;;;;;;4979328;28;20054;-69
2022/03/05 04:49:14;;;;;;;46.08;26.05;;;1.40;99.90;;;;;;4975054;28;20034;-69
2022/03/05 04:51:43;;;;;;;39.55;22.38;;;1.30;99.90;;;;;;4975282;28;20041;-69
2022/03/05 04:54:19;;;;;;;37.53;22.50;;;1.30;99.90;;;;;;4974491;28;20037;-69
2022/03/05 04:56:57;;;;;;;57.38;30.95;;;1.20;99.90;;;;;;4975791;28;20433;-68
2022/03/05 04:59:42;;;;;;;51.97;28.73;;;1.10;99.90;;;;;;4958797;28;20035;-69
2022/03/05 05:02:08;;;;;;;39.63;21.45;;;1.10;99.90;;;;;;4975274;28;20035;-69
2022/03/05 05:04:34;;;;;;;38.13;21.00;;;1.00;99.90;;;;;;4975339;28;20105;-69
2022/03/05 05:07:25;;;;;;;37.70;21.17;;;1.00;99.90;;;;;;4975539;28;20086;-69
2022/03/05 05:09:51;;;;;;;38.30;20.67;;;1.00;99.90;;;;;;4974518;28;20015;-69
2022/03/05 05:16:10;;;;;;;47.03;28.17;;;0.90;99.90;;;;;;4944322;29;20425;-69
2022/03/05 05:19:24;;;;;;;47.60;30.83;;;0.70;99.90;;;;;;4957438;28;20043;-69
2022/03/05 05:21:39;;;;;;;41.90;24.85;;;0.70;99.90;;;;;;4972305;28;20188;-69
2022/03/05 05:24:08;;;;;;;35.88;21.85;;;0.70;99.90;;;;;;4955096;28;20027;-69
2022/03/05 05:26:40;;;;;;;36.38;20.60;;;0.70;99.90;;;;;;4960002;28;20170;-69
2022/03/05 05:29:18;;;;;;;47.20;24.90;;;0.80;99.90;;;;;;4946850;28;20156;-70
2022/03/05 05:31:46;;;;;;;38.47;23.73;;;0.80;99.90;;;;;;4943066;28;20718;-69
2022/03/05 05:34:43;;;;;;;;;;;;;;;;;;;;;
2022/03/05 05:37:15;;;;;;;94.75;54.63;;;1.10;99.90;;;;;;4966988;28;20042;-70
2022/03/05 05:39:41;;;;;;;64.03;36.97;;;1.30;99.90;;;;;;4961640;28;20074;-70
2022/03/05 05:42:48;;;;;;;58.13;36.80;;;1.50;99.90;;;;;;4969401;28;20058;-70
2022/03/05 05:45:21;;;;;;;93.95;65.95;;;1.50;99.90;;;;;;4960972;28;20832;-70
2022/03/05 05:48:19;;;;;;;65.13;40.75;;;1.90;99.70;;;;;;4956645;28;20051;-70
2022/03/05 05:51:13;;;;;;;59.15;35.28;;;2.00;98.60;;;;;;4926487;28;20031;-70
2022/03/05 05:53:41;;;;;;;43.63;23.52;;;2.30;98.70;;;;;;4982889;28;20496;-70
2022/03/05 05:56:09;;;;;;;46.08;25.42;;;2.60;97.60;;;;;;4974405;28;20154;-70
2022/03/05 05:58:35;;;;;;;48.47;27.95;;;2.90;96.90;;;;;;4974352;28;20105;-70
2022/03/05 06:01:01;;;;;;;63.13;34.33;;;3.20;95.20;;;;;;4972872;28;20413;-70
2022/03/05 06:03:30;;;;;;;52.65;31.88;;;3.30;93.90;;;;;;4974437;28;20031;-68
2022/03/05 06:06:06;;;;;;;59.28;33.50;;;3.40;93.90;;;;;;4966676;28;20038;-70
2022/03/05 06:08:38;;;;;;;46.55;26.92;;;3.60;93.10;;;;;;4973109;28;20035;-69
2022/03/05 06:11:04;;;;;;;45.15;25.23;;;3.70;92.90;;;;;;4972868;28;20031;-70
2022/03/05 06:13:35;;;;;;;45.95;25.80;;;3.80;92.00;;;;;;4973228;28;20026;-70
2022/03/05 06:16:02;;;;;;;39.92;24.85;;;3.90;91.80;;;;;;4955956;28;20050;-70
2022/03/05 06:18:28;;;;;;;40.15;22.27;;;3.90;91.00;;;;;;4972433;28;20038;-69
2022/03/05 06:20:54;;;;;;;37.33;20.05;;;4.20;90.70;;;;;;4973734;28;20621;-69
2022/03/05 06:23:31;;;;;;;46.30;26.92;;;4.10;88.60;;;;;;4972618;28;20031;-69
2022/03/05 06:25:58;;;;;;;41.28;23.90;;;3.90;90.20;;;;;;4985001;28;20066;-70
2022/03/05 06:28:23;;;;;;;38.22;22.05;;;3.40;91.10;;;;;;4973988;28;20034;-70
2022/03/05 06:30:50;;;;;;;39.65;22.30;;;3.10;91.30;;;;;;4974123;28;20504;-70
2022/03/05 06:33:16;;;;;;;40.05;21.70;;;2.60;91.40;;;;;;4974349;28;20029;-70
2022/03/05 06:35:50;;;;;;;39.22;21.70;;;2.30;93.40;;;;;;4973709;28;20027;-70
2022/03/05 06:38:26;;;;;;;30.92;17.55;;;2.50;95.40;;;;;;4968990;28;20034;-70
2022/03/05 06:40:52;;;;;;;32.40;18.15;;;2.20;93.20;;;;;;4982895;28;20330;-70
2022/03/05 06:43:19;;;;;;;33.60;20.35;;;2.10;95.00;;;;;;4973556;28;20117;-69
2022/03/05 06:45:45;;;;;;;39.17;21.60;;;2.30;95.60;;;;;;4973754;28;20059;-72
2022/03/05 06:48:23;;;;;;;36.28;20.02;;;2.30;95.60;;;;;;4973808;28;20491;-69
2022/03/05 06:54:11;;;;;;;42.47;23.27;;;2.80;97.70;;;;;;4969500;28;20039;-71
2022/03/05 06:56:37;;;;;;;49.95;25.60;;;2.70;94.90;;;;;;4973915;28;20153;-70
2022/03/05 07:02:44;;;;;;;37.88;20.10;;;2.40;93.40;;;;;;4934052;29;20062;-69
2022/03/05 07:05:10;;;;;;;31.52;19.52;;;2.80;96.00;;;;;;4932683;29;20563;-71
2022/03/05 07:07:47;;;;;;;31.35;19.38;;;2.70;93.80;;;;;;4948669;29;20043;-69
2022/03/05 07:10:51;;;;;;;34.35;19.63;;;2.90;94.20;;;;;;4929966;29;20129;-70
2022/03/05 07:13:28;;;;;;;40.70;22.10;;;2.90;93.90;;;;;;4902016;29;20044;-69
2022/03/05 07:15:54;;;;;;;37.03;20.73;;;3.10;94.50;;;;;;4932471;29;20042;-70
2022/03/05 07:18:20;;;;;;;32.85;17.60;;;3.20;92.20;;;;;;4931872;29;20390;-70
2022/03/05 07:20:45;;;;;;;44.65;24.58;;;3.00;91.20;;;;;;4931625;29;20122;-69
2022/03/05 07:23:11;;;;;;;34.88;19.35;;;3.10;91.60;;;;;;4932851;29;20036;-70
2022/03/05 07:25:39;;;;;;;34.90;21.42;;;3.30;91.90;;;;;;4931792;29;20036;-69
2022/03/05 07:28:10;;;;;;;38.33;21.77;;;3.40;91.50;;;;;;4897427;29;20046;-69
2022/03/05 07:30:43;;;;;;;31.77;17.58;;;3.40;90.90;;;;;;4913501;29;20036;-70
2022/03/05 07:33:15;;;;;;;32.13;18.58;;;3.60;90.50;;;;;;4914229;29;20429;-70
2022/03/05 07:35:42;;;;;;;31.75;19.27;;;3.40;90.30;;;;;;4915512;29;20028;-70
2022/03/05 07:38:17;;;;;;;31.90;18.05;;;3.60;89.30;;;;;;4940390;28;20582;-69
2022/03/05 07:40:55;;;;;;;31.45;18.70;;;3.50;89.60;;;;;;4965738;28;20098;-69
2022/03/05 07:43:25;;;;;;;33.70;18.73;;;3.60;89.10;;;;;;4955337;28;20041;-68
2022/03/05 07:46:01;;;;;;;31.33;16.92;;;3.70;89.00;;;;;;4954575;28;20043;-68
2022/03/05 07:48:42;;;;;;;32.25;17.88;;;3.70;89.90;;;;;;4963413;28;20031;-69
2022/03/05 07:51:17;;;;;;;29.83;17.15;;;3.90;90.10;;;;;;4970740;28;20102;-69
2022/03/05 07:53:48;;;;;;;34.67;19.02;;;4.10;90.70;;;;;;4955875;28;20062;-68
2022/03/05 07:56:14;;;;;;;30.92;17.13;;;3.80;88.70;;;;;;4972417;28;20077;-68
2022/03/05 07:58:40;;;;;;;28.98;16.77;;;3.70;87.50;;;;;;4972283;28;20491;-69
2022/03/05 08:01:06;;;;;;;31.50;19.25;;;3.90;89.00;;;;;;4971424;28;20038;-69
2022/03/05 08:03:32;;;;;;;33.78;19.70;;;4.00;88.90;;;;;;4972216;28;20098;-69
2022/03/05 08:06:01;;;;;;;35.97;18.38;;;4.40;89.30;;;;;;4971430;28;20496;-70
2022/03/05 08:08:26;;;;;;;29.48;18.40;;;4.60;89.10;;;;;;4970804;28;20039;-70
2022/03/05 08:11:03;;;;;;;26.70;15.63;;;4.70;85.10;;;;;;4974376;28;20045;-68
2022/03/05 08:13:31;;;;;;;29.60;15.70;;;4.90;86.60;;;;;;4958380;28;20041;-68
2022/03/05 08:16:00;;;;;;;34.28;20.85;;;5.10;85.70;;;;;;4972424;28;20027;-70
2022/03/05 08:18:29;;;;;;;31.63;17.08;;;5.30;86.70;;;;;;4990458;28;20078;-67
2022/03/05 08:21:05;;;;;;;31.10;17.92;;;5.00;84.00;;;;;;4974512;28;20027;-68
2022/03/05 08:23:31;;;;;;;26.90;15.18;;;5.20;85.70;;;;;;4974635;28;20025;-70
2022/03/05 08:25:56;;;;;;;25.85;14.73;;;4.80;81.60;;;;;;4990426;28;20489;-70
2022/03/05 08:28:22;;;;;;;32.40;17.75;;;4.90;81.60;;;;;;4975939;28;20019;-68
2022/03/05 08:30:54;;;;;;;28.15;16.38;;;4.90;80.80;;;;;;4975874;28;20437;-67
2022/03/05 08:33:33;;;;;;;28.27;17.23;;;5.10;82.10;;;;;;4969192;28;20074;-69
2022/03/05 08:36:02;;;;;;;30.17;17.40;;;5.00;81.70;;;;;;4968457;28;20034;-69
2022/03/05 08:38:34;;;;;;;31.42;16.13;;;4.90;81.50;;;;;;4970842;28;20036;-67
2022/03/05 08:41:18;;;;;;;28.65;17.92;;;5.20;81.50;;;;;;4970198;28;20062;-69
2022/03/05 08:43:53;;;;;;;29.58;16.10;;;5.40;81.50;;;;;;4974947;28;20429;-67
2022/03/05 08:46:22;;;;;;;31.67;15.75;;;5.70;81.10;;;;;;4990184;28;20516;-69
2022/03/05 08:48:48;;;;;;;27.90;14.73;;;5.70;79.40;;;;;;4974896;28;20031;-68
2022/03/05 08:51:15;;;;;;;28.27;16.73;;;5.90;78.90;;;;;;4974678;28;20038;-71
2022/03/05 08:53:41;;;;;;;27.75;17.15;;;5.50;79.70;;;;;;4974708;28;20035;-70
2022/03/05 08:56:15;;;;;;;27.73;15.57;;;5.30;79.30;;;;;;4974852;28;20030;-68
2022/03/05 08:58:41;;;;;;;26.85;15.20;;;5.60;80.40;;;;;;4970029;28;20042;-67
2022/03/05 09:01:08;;;;;;;27.10;15.48;;;5.30;78.40;;;;;;4970511;28;20050;-69
2022/03/05 09:03:34;;;;;;;30.15;17.23;;;5.00;79.10;;;;;;4975564;28;20122;-69
2022/03/05 09:06:01;;;;;;;29.85;15.35;;;4.90;81.40;;;;;;4975282;28;20034;-69
2022/03/05 09:08:33;;;;;;;25.55;14.52;;;4.70;80.30;;;;;;4973804;28;20066;-69
2022/03/05 09:10:59;;;;;;;26.20;14.93;;;4.70;79.80;;;;;;4973852;28;20505;-70
2022/03/05 09:13:25;;;;;;;30.58;16.08;;;5.20;81.10;;;;;;4975005;28;20440;-70
2022/03/05 09:15:57;;;;;;;27.58;14.77;;;5.70;82.10;;;;;;4974721;28;20023;-70
2022/03/05 09:18:23;;;;;;;26.83;15.20;;;5.80;81.30;;;;;;4970251;28;20446;-69
2022/03/05 09:20:49;;;;;;;27.67;15.27;;;5.50;78.70;;;;;;4970114;28;20058;-70
2022/03/05 09:23:18;;;;;;;26.67;14.50;;;5.50;80.40;;;;;;4974241;28;20875;-68
2022/03/05 09:25:46;;;;;;;26.80;13.88;;;5.70;79.60;;;;;;4970687;28;20058;-70
2022/03/05 09:28:12;;;;;;;26.00;14.68;;;5.80;77.90;;;;;;4972858;28;20031;-70
2022/03/05 09:30:39;;;;;;;27.10;13.48;;;5.70;78.80;;;;;;4972646;28;20037;-70
2022/03/05 09:33:04;;;;;;;27.42;15.68;;;5.70;77.40;;;;;;4981132;28;20069;-69
2022/03/05 09:35:31;;;;;;;27.55;15.15;;;6.00;79.10;;;;;;4973565;28;20388;-69
2022/03/05 09:37:57;;;;;;;28.95;14.82;;;6.20;79.70;;;;;;4973578;28;20101;-70
2022/03/05 09:40:27;;;;;;;25.77;14.07;;;6.20;77.80;;;;;;4972513;28;20049;-68
2022/03/05 09:42:54;;;;;;;24.27;14.38;;;6.00;76.10;;;;;;4973396;28;20161;-68
2022/03/05 09:45:24;;;;;;;27.23;14.63;;;6.20;77.00;;;;;;4986347;28;20038;-69
2022/03/05 09:47:50;;;;;;;27.80;13.65;;;5.90;76.30;;;;;;4971657;28;20046;-68
2022/03/05 09:50:24;;;;;;;27.20;14.85;;;6.00;76.40;;;;;;4970496;28;20027;-68
2022/03/05 09:53:01;;;;;;;24.63;14.68;;;6.00;77.60;;;;;;4971238;28;20408;-69
2022/03/05 09:55:28;;;;;;;29.15;16.13;;;6.10;78.50;;;;;;4971727;28;20097;-69
2022/03/05 09:57:54;;;;;;;26.98;13.65;;;6.20;76.00;;;;;;4972088;28;20027;-69
2022/03/05 10:00:20;;;;;;;24.55;14.10;;;6.40;75.00;;;;;;4970928;28;20054;-68
2022/03/05 10:02:50;;;;;;;26.55;15.60;;;6.40;75.70;;;;;;4987393;28;20027;-69
2022/03/05 10:05:26;;;;;;;25.10;13.82;;;6.00;75.30;;;;;;4976147;28;20478;-68
2022/03/05 10:08:07;;;;;;;30.15;17.08;;;6.20;75.50;;;;;;4987609;28;20084;-68
2022/03/05 10:10:42;;;;;;;30.00;16.50;;;6.40;76.60;;;;;;4972911;28;20513;-68
2022/03/05 10:13:30;;;;;;;31.67;15.20;;;6.30;75.10;;;;;;4970691;28;20614;-69
2022/03/05 10:16:06;;;;;;;25.50;14.43;;;6.10;75.90;;;;;;4973885;28;20054;-69
2022/03/05 10:18:40;;;;;;;32.03;16.73;;;5.80;74.80;;;;;;4971723;28;20023;-70
2022/03/05 10:21:08;;;;;;;29.40;16.50;;;6.20;76.70;;;;;;4975092;28;20042;-70
2022/03/05 10:23:38;;;;;;;26.33;14.25;;;6.10;74.90;;;;;;4973807;28;20050;-68
2022/03/05 10:26:21;;;;;;;26.00;14.48;;;6.20;75.80;;;;;;4972600;28;20130;-70
2022/03/05 10:28:56;;;;;;;23.75;13.13;;;6.30;76.00;;;;;;4971447;28;20825;-70
2022/03/05 10:31:24;;;;;;;28.85;15.95;;;6.20;74.20;;;;;;4987585;28;20062;-70
2022/03/05 10:33:50;;;;;;;26.63;15.43;;;6.40;75.60;;;;;;4972872;28;20550;-70
2022/03/05 10:36:24;;;;;;;26.50;14.25;;;6.30;74.30;;;;;;4988170;28;20034;-71
2022/03/05 10:38:59;;;;;;;22.55;13.25;;;6.50;74.10;;;;;;4973178;28;20038;-70
2022/03/05 10:41:40;;;;;;;29.00;14.55;;;6.40;74.10;;;;;;4972971;28;20026;-71
2022/03/05 10:44:15;;;;;;;28.08;15.70;;;6.50;73.90;;;;;;4969828;28;20027;-70
2022/03/05 10:46:49;;;;;;;28.08;15.85;;;6.80;75.30;;;;;;4973238;28;20529;-71
2022/03/05 10:49:27;;;;;;;25.65;14.43;;;6.80;73.40;;;;;;4971850;28;20043;-70
2022/03/05 10:52:06;;;;;;;28.63;15.82;;;6.60;72.50;;;;;;4972907;28;20047;-70
2022/03/05 10:54:44;;;;;;;25.33;14.43;;;6.80;73.30;;;;;;4973650;28;20066;-70
2022/03/05 10:57:23;;;;;;;34.28;17.50;;;7.10;72.30;;;;;;4971474;28;20027;-71
2022/03/05 10:59:52;;;;;;;30.48;16.80;;;7.30;72.60;;;;;;4971779;28;20425;-71
2022/03/05 11:02:22;;;;;;;27.75;16.35;;;7.10;73.30;;;;;;4973403;28;20078;-71
2022/03/05 11:04:50;;;;;;;35.40;16.67;;;6.90;73.10;;;;;;4973262;28;20058;-71
2022/03/05 11:07:17;;;;;;;28.42;16.70;;;6.90;74.00;;;;;;4972307;28;20094;-70
2022/03/05 11:09:44;;;;;;;29.65;16.67;;;6.70;73.00;;;;;;4973499;28;20039;-71
2022/03/05 11:12:18;;;;;;;28.17;15.15;;;6.80;73.50;;;;;;4971867;28;20037;-71
2022/03/05 11:14:49;;;;;;;26.98;16.08;;;7.10;73.50;;;;;;4973033;28;20485;-71
2022/03/05 11:17:16;;;;;;;31.50;16.58;;;7.30;73.50;;;;;;4966737;28;20023;-70
2022/03/05 11:19:43;;;;;;;26.75;15.20;;;7.10;73.50;;;;;;4972037;28;20033;-71
2022/03/05 11:22:11;;;;;;;43.33;22.90;;;7.50;73.60;;;;;;4972835;28;20093;-70
2022/03/05 11:24:39;;;;;;;31.30;17.02;;;7.80;75.30;;;;;;4973260;28;20148;-72
2022/03/05 11:27:06;;;;;;;33.42;18.38;;;7.70;72.80;;;;;;4972959;28;20039;-72
2022/03/05 11:29:53;;;;;;;28.00;16.55;;;7.20;71.40;;;;;;4972366;28;20019;-72
2022/03/05 11:32:20;;;;;;;30.33;17.52;;;6.90;72.00;;;;;;4976585;28;20658;-72
2022/03/05 11:34:48;;;;;;;27.98;17.33;;;7.20;74.20;;;;;;4972461;28;20031;-72
2022/03/05 11:37:24;;;;;;;27.95;16.23;;;7.10;72.00;;;;;;4973014;28;20059;-72
2022/03/05 11:39:50;;;;;;;31.05;18.08;;;7.30;71.70;;;;;;4987659;28;20050;-71
2022/03/05 11:42:34;;;;;;;30.40;16.10;;;7.40;72.10;;;;;;4972895;28;20428;-71
2022/03/05 11:45:20;;;;;;;27.60;15.38;;;7.60;71.80;;;;;;4975452;28;20133;-71
2022/03/05 11:47:46;;;;;;;32.90;18.25;;;7.60;72.00;;;;;;4974727;28;20035;-71
2022/03/05 11:50:15;;;;;;;29.02;16.60;;;7.90;71.50;;;;;;4975889;28;20577;-72
2022/03/05 11:52:41;;;;;;;30.35;16.98;;;7.80;70.60;;;;;;4976076;28;20045;-71
2022/03/05 11:55:26;;;;;;;23.23;14.88;;;8.00;71.00;;;;;;4975752;28;20026;-72
2022/03/05 11:57:52;;;;;;;29.08;15.70;;;7.70;70.70;;;;;;4977095;28;20042;-71
2022/03/05 12:00:25;;;;;;;27.33;15.73;;;7.60;70.20;;;;;;4975971;28;20027;-71
2022/03/05 12:02:54;;;;;;;30.13;15.52;;;7.50;70.80;;;;;;4976464;28;20035;-71
2022/03/05 12:05:40;;;;;;;29.13;16.27;;;7.30;70.40;;;;;;4976561;28;20023;-71
2022/03/05 12:08:10;;;;;;;27.83;14.15;;;7.40;69.70;;;;;;4976497;28;20121;-71
2022/03/05 12:10:38;;;;;;;30.73;16.92;;;7.40;70.50;;;;;;4974500;28;20482;-72
2022/03/05 12:13:10;;;;;;;26.33;14.32;;;7.60;69.30;;;;;;4974396;28;20039;-72
2022/03/05 12:15:44;;;;;;;26.42;15.25;;;7.70;69.80;;;;;;4975570;28;20070;-71
2022/03/05 12:18:12;;;;;;;24.92;15.50;;;7.70;69.40;;;;;;4975641;28;20432;-71
2022/03/05 12:20:42;;;;;;;26.23;14.82;;;7.70;69.60;;;;;;4973043;28;20385;-71
2022/03/05 12:23:11;;;;;;;25.83;15.70;;;7.70;68.80;;;;;;4973245;28;20027;-71
2022/03/05 12:25:39;;;;;;;31.20;15.73;;;7.90;69.60;;;;;;4975472;28;20043;-70
2022/03/05 12:28:21;;;;;;;27.23;15.10;;;7.80;69.70;;;;;;4966508;28;20050;-69
2022/03/05 12:30:51;;;;;;;28.70;15.27;;;7.60;68.70;;;;;;4975733;28;20515;-72
2022/03/05 12:33:18;;;;;;;31.88;16.13;;;7.20;66.80;;;;;;4972941;28;20489;-70
2022/03/05 12:35:47;;;;;;;27.67;14.77;;;7.30;68.70;;;;;;4974819;28;20101;-70
2022/03/05 12:38:20;;;;;;;30.52;16.80;;;7.30;68.30;;;;;;4974030;28;20113;-69
2022/03/05 12:40:47;;;;;;;25.30;13.70;;;7.30;67.90;;;;;;4974262;28;20022;-69
2022/03/05 12:43:13;;;;;;;28.05;16.38;;;7.50;68.40;;;;;;4974974;28;20023;-70
2022/03/05 12:45:46;;;;;;;26.60;15.15;;;7.70;68.90;;;;;;4976527;28;20125;-71
2022/03/05 12:48:19;;;;;;;28.50;15.55;;;8.00;70.20;;;;;;4980738;28;20057;-71
2022/03/05 12:50:47;;;;;;;27.40;16.80;;;8.30;70.10;;;;;;4972626;28;20026;-70
2022/03/05 12:53:19;;;;;;;29.35;15.45;;;8.00;68.00;;;;;;4974595;28;20030;-71
2022/03/05 12:55:48;;;;;;;31.00;16.98;;;8.30;68.00;;;;;;4973070;28;20065;-71
2022/03/05 12:58:41;;;;;;;25.65;14.60;;;8.20;67.90;;;;;;4974847;28;20031;-70
2022/03/05 13:01:11;;;;;;;26.15;15.05;;;8.10;68.50;;;;;;4974325;28;20023;-70
2022/03/05 13:03:38;;;;;;;23.20;14.57;;;8.10;68.10;;;;;;4974195;28;20454;-70
2022/03/05 13:06:12;;;;;;;27.85;15.85;;;7.70;66.00;;;;;;4975065;28;20106;-68